Time;durP1;ratioP1;P1;durP2;ratioP2;P2;SDS_P1;SDS_P2;PMS_P1;PMS_P2;Temp;Humidity;BMP_temperature;BMP_pressure;BME280_temperature;BME280_humidity;BME280_pressure;Samples;Min_cycle;Max_cycle;Signal;HPM_P1;HPM_P2
2021/12/26 00:01:02;;;;;;;20.23;6.28;;;-12.90;99.90;;;;;;4988400;28;20086;-76
2021/12/26 00:03:32;;;;;;;15.10;7.05;;;-12.90;99.90;;;;;;4977655;28;20552;-77
2021/12/26 00:06:07;;;;;;;13.40;6.97;;;-12.90;99.90;;;;;;4990951;28;20062;-77
2021/12/26 00:08:35;;;;;;;16.38;6.68;;;-12.80;99.90;;;;;;4991618;28;20130;-77
2021/12/26 00:11:03;;;;;;;14.50;6.82;;;-12.80;99.90;;;;;;4991878;28;20046;-77
2021/12/26 00:13:31;;;;;;;15.07;6.78;;;-12.70;99.90;;;;;;4991609;28;20058;-77
2021/12/26 00:16:01;;;;;;;18.27;7.13;;;-12.70;99.90;;;;;;4989457;28;20495;-77
2021/12/26 00:18:29;;;;;;;19.70;7.80;;;-12.70;99.90;;;;;;4978803;28;20057;-77
2021/12/26 00:20:56;;;;;;;22.00;9.73;;;-12.70;99.90;;;;;;4991385;28;20414;-77
2021/12/26 00:23:25;;;;;;;25.50;10.20;;;-12.70;99.90;;;;;;4991804;28;20046;-77
2021/12/26 00:25:54;;;;;;;25.67;10.90;;;-12.70;99.90;;;;;;4989956;28;20066;-75
2021/12/26 00:28:22;;;;;;;27.60;10.32;;;-12.60;99.90;;;;;;4991838;28;20578;-76
2021/12/26 00:30:49;;;;;;;30.77;12.82;;;-12.60;99.90;;;;;;4990096;28;20046;-76
2021/12/26 00:33:17;;;;;;;27.77;11.68;;;-12.60;99.90;;;;;;4989972;28;20422;-77
2021/12/26 00:35:45;;;;;;;28.17;12.38;;;-12.50;99.90;;;;;;5004112;28;20077;-76
2021/12/26 00:38:13;;;;;;;29.38;11.50;;;-12.60;99.90;;;;;;4990171;28;20049;-76
2021/12/26 00:40:42;;;;;;;26.48;11.57;;;-12.70;99.90;;;;;;4990297;28;20054;-76
2021/12/26 00:43:10;;;;;;;29.40;10.52;;;-12.80;99.90;;;;;;4990546;28;20073;-76
2021/12/26 00:45:39;;;;;;;28.02;12.02;;;-12.90;99.90;;;;;;4985697;28;20053;-79
2021/12/26 00:48:10;;;;;;;26.45;11.15;;;-13.00;99.90;;;;;;4994153;28;20054;-76
2021/12/26 00:50:41;;;;;;;26.67;11.25;;;-13.10;99.90;;;;;;4994931;28;20396;-77
2021/12/26 00:53:09;;;;;;;26.40;10.35;;;-13.20;99.90;;;;;;4994214;28;20133;-76
2021/12/26 00:55:37;;;;;;;21.70;9.70;;;-13.30;99.90;;;;;;4989074;28;20046;-77
2021/12/26 00:58:07;;;;;;;26.80;10.00;;;-13.40;99.90;;;;;;4993844;28;20566;-77
2021/12/26 01:00:39;;;;;;;25.80;9.77;;;-13.40;99.90;;;;;;4974751;28;20054;-76
2021/12/26 01:03:08;;;;;;;23.35;9.82;;;-13.60;99.90;;;;;;5001362;28;20057;-76
2021/12/26 01:05:38;;;;;;;26.15;10.38;;;-13.60;99.90;;;;;;4994304;28;20586;-76
2021/12/26 01:08:12;;;;;;;20.77;9.73;;;-13.70;99.90;;;;;;4993508;28;20136;-76
2021/12/26 01:10:48;;;;;;;21.92;9.57;;;-13.80;99.90;;;;;;4992110;28;20137;-76
2021/12/26 01:13:25;;;;;;;18.17;8.15;;;-13.70;99.90;;;;;;5008414;28;20422;-76
2021/12/26 01:16:00;;;;;;;19.25;7.57;;;-13.70;99.90;;;;;;4993360;28;20042;-76
2021/12/26 01:18:32;;;;;;;14.25;7.18;;;-13.70;99.90;;;;;;4994003;28;20137;-76
2021/12/26 01:21:05;;;;;;;24.80;8.98;;;-13.70;99.90;;;;;;4975268;28;20149;-76
2021/12/26 01:23:34;;;;;;;20.17;8.45;;;-13.60;99.90;;;;;;4989222;28;20648;-77
2021/12/26 01:26:03;;;;;;;20.42;8.40;;;-13.60;99.90;;;;;;4994425;28;20054;-76
2021/12/26 01:28:35;;;;;;;20.48;7.80;;;-13.50;99.90;;;;;;4995392;28;20483;-77
2021/12/26 01:31:05;;;;;;;18.15;7.50;;;-13.40;99.90;;;;;;4991185;28;20173;-77
2021/12/26 01:33:38;;;;;;;18.85;7.07;;;-13.30;99.90;;;;;;5009264;28;20047;-77
2021/12/26 01:36:25;;;;;;;15.25;7.38;;;-13.20;99.90;;;;;;4993675;28;20058;-76
2021/12/26 01:39:11;;;;;;;18.65;7.63;;;-13.20;99.90;;;;;;4993181;28;20042;-77
2021/12/26 01:42:08;;;;;;;17.08;6.80;;;-13.10;99.90;;;;;;4990628;28;20058;-77
2021/12/26 01:45:01;;;;;;;20.67;7.60;;;-13.20;99.90;;;;;;4985228;28;20046;-77
2021/12/26 01:47:34;;;;;;;15.45;7.18;;;-13.20;99.90;;;;;;5009508;28;20054;-76
2021/12/26 01:50:02;;;;;;;14.23;7.50;;;-13.20;99.90;;;;;;4993028;28;20128;-76
2021/12/26 01:52:30;;;;;;;16.85;8.75;;;-13.30;99.90;;;;;;4976478;28;20521;-76
2021/12/26 01:55:20;;;;;;;24.23;9.63;;;-13.40;99.90;;;;;;5008786;28;20069;-76
2021/12/26 01:57:48;;;;;;;15.07;6.95;;;-13.40;99.90;;;;;;4988917;28;20072;-76
2021/12/26 02:00:19;;;;;;;16.15;7.30;;;-13.50;99.90;;;;;;5006043;28;20141;-77
2021/12/26 02:02:48;;;;;;;19.35;7.82;;;-13.60;99.90;;;;;;4982899;28;20069;-75
2021/12/26 02:05:18;;;;;;;15.20;6.88;;;-13.60;99.90;;;;;;5005670;28;20089;-76
2021/12/26 02:07:47;;;;;;;14.73;6.38;;;-13.70;99.90;;;;;;4982134;28;20046;-76
2021/12/26 02:10:16;;;;;;;16.40;7.47;;;-13.70;99.90;;;;;;4975639;28;20137;-75
2021/12/26 02:12:44;;;;;;;13.95;6.15;;;-13.70;99.90;;;;;;4990815;28;20082;-76
2021/12/26 02:15:12;;;;;;;11.95;5.72;;;-13.70;99.90;;;;;;4975214;28;20054;-76
2021/12/26 02:17:53;;;;;;;21.05;8.00;;;-13.70;99.90;;;;;;4990594;28;20142;-75
2021/12/26 02:20:35;;;;;;;15.23;5.97;;;-13.70;99.90;;;;;;4993642;28;20053;-75
2021/12/26 02:23:09;;;;;;;11.40;5.07;;;-13.70;99.90;;;;;;4975054;28;20503;-75
2021/12/26 02:28:24;;;;;;;10.35;4.40;;;-13.70;99.90;;;;;;4992659;28;20061;-75
2021/12/26 02:30:53;;;;;;;6.85;4.00;;;-13.70;99.90;;;;;;4990841;28;20098;-76
2021/12/26 02:33:21;;;;;;;10.43;4.72;;;-13.70;99.90;;;;;;4993490;28;20140;-75
2021/12/26 02:35:51;;;;;;;11.48;4.78;;;-13.70;99.90;;;;;;4990408;28;20045;-76
2021/12/26 02:38:19;;;;;;;5.65;3.88;;;-13.70;99.90;;;;;;4990585;28;20077;-76
2021/12/26 02:40:50;;;;;;;6.47;3.67;;;-13.60;99.90;;;;;;4993819;28;20050;-76
2021/12/26 02:43:24;;;;;;;9.07;3.92;;;-13.70;99.90;;;;;;4976031;28;20051;-76
2021/12/26 02:45:54;;;;;;;8.57;4.38;;;-13.70;99.90;;;;;;4989798;28;20061;-76
2021/12/26 02:48:22;;;;;;;11.52;4.28;;;-13.70;99.90;;;;;;4990434;28;20062;-76
2021/12/26 02:50:56;;;;;;;9.23;3.83;;;-13.70;99.90;;;;;;4990156;28;20469;-75
2021/12/26 02:53:26;;;;;;;9.38;4.30;;;-13.70;99.90;;;;;;4989291;28;20046;-76
2021/12/26 02:55:58;;;;;;;9.63;3.97;;;-13.70;99.90;;;;;;4987811;28;20095;-76
2021/12/26 02:58:26;;;;;;;8.68;4.18;;;-13.70;99.90;;;;;;4974042;28;20104;-76
2021/12/26 03:00:58;;;;;;;7.00;3.88;;;-13.70;99.90;;;;;;4991726;28;20042;-75
2021/12/26 03:03:26;;;;;;;7.05;3.60;;;-13.70;99.90;;;;;;4989696;28;20077;-75
2021/12/26 03:06:02;;;;;;;7.55;3.83;;;-13.70;99.90;;;;;;4991718;28;20059;-76
2021/12/26 03:08:31;;;;;;;8.93;3.78;;;-13.70;99.90;;;;;;4992228;28;20070;-76
2021/12/26 03:10:59;;;;;;;7.97;4.18;;;-13.70;99.90;;;;;;4991003;28;20081;-76
2021/12/26 03:13:28;;;;;;;12.95;4.38;;;-13.70;99.90;;;;;;4991616;28;20058;-77
2021/12/26 03:15:55;;;;;;;9.45;4.38;;;-13.70;99.90;;;;;;4990640;28;20042;-77
2021/12/26 03:18:23;;;;;;;9.00;4.07;;;-13.70;99.90;;;;;;4988495;28;20054;-79
2021/12/26 03:20:52;;;;;;;9.85;4.28;;;-13.70;99.90;;;;;;4982444;28;20053;-77
2021/12/26 03:23:24;;;;;;;7.68;3.50;;;-13.70;99.90;;;;;;4974351;28;20568;-77
2021/12/26 03:25:56;;;;;;;18.92;4.97;;;-13.80;99.90;;;;;;4996473;28;20078;-77
2021/12/26 03:28:24;;;;;;;6.35;3.90;;;-13.80;99.90;;;;;;4989745;28;20154;-77
2021/12/26 03:30:52;;;;;;;10.60;4.20;;;-13.80;99.90;;;;;;4989471;28;20050;-77
2021/12/26 03:33:22;;;;;;;7.57;3.88;;;-13.90;99.90;;;;;;4991205;28;20049;-77
2021/12/26 03:35:50;;;;;;;10.88;4.43;;;-13.90;99.90;;;;;;4989437;28;20507;-77
2021/12/26 03:38:19;;;;;;;9.57;3.85;;;-14.00;99.90;;;;;;4974651;28;20116;-77
2021/12/26 03:40:54;;;;;;;7.47;3.97;;;-14.00;99.90;;;;;;4990795;28;20062;-78
2021/12/26 03:43:22;;;;;;;9.88;4.65;;;-14.10;99.90;;;;;;4991473;28;20061;-77
2021/12/26 03:45:52;;;;;;;12.57;5.07;;;-14.10;99.90;;;;;;4990255;28;20079;-77
2021/12/26 03:48:22;;;;;;;10.55;5.25;;;-14.10;99.90;;;;;;4990285;28;20064;-78
2021/12/26 03:50:51;;;;;;;13.05;5.50;;;-14.20;99.90;;;;;;5005492;28;20050;-78
2021/12/26 03:53:19;;;;;;;6.93;3.58;;;-14.20;99.90;;;;;;4992198;28;20137;-78
2021/12/26 03:55:50;;;;;;;7.80;4.18;;;-14.20;99.90;;;;;;4990889;28;20109;-78
2021/12/26 03:58:18;;;;;;;10.73;4.78;;;-14.30;99.90;;;;;;4998122;28;20093;-77
2021/12/26 04:00:49;;;;;;;11.98;4.65;;;-14.40;99.90;;;;;;4989956;28;20546;-77
2021/12/26 04:03:21;;;;;;;11.23;4.57;;;-14.50;99.90;;;;;;4989402;28;20078;-77
2021/12/26 04:05:56;;;;;;;6.82;2.90;;;-14.50;99.90;;;;;;4988944;28;20049;-77
2021/12/26 04:08:24;;;;;;;5.43;3.03;;;-14.60;99.90;;;;;;4987795;28;20105;-77
2021/12/26 04:10:53;;;;;;;7.63;3.60;;;-14.60;99.90;;;;;;4971515;28;20090;-77
2021/12/26 04:13:21;;;;;;;8.77;3.50;;;-14.70;99.90;;;;;;4989584;28;20050;-77
2021/12/26 04:15:49;;;;;;;7.15;2.88;;;-14.70;99.90;;;;;;4990596;28;20519;-76
2021/12/26 04:18:16;;;;;;;6.43;3.05;;;-14.80;99.90;;;;;;4984405;28;20092;-76
2021/12/26 04:20:44;;;;;;;6.15;3.10;;;-14.80;99.90;;;;;;4988529;28;20057;-77
2021/12/26 04:23:14;;;;;;;7.55;3.00;;;-14.80;99.90;;;;;;4988764;28;20089;-77
2021/12/26 04:25:42;;;;;;;5.18;3.78;;;-14.80;99.90;;;;;;4988558;28;20054;-77
2021/12/26 04:28:11;;;;;;;4.93;3.20;;;-14.90;99.90;;;;;;4984367;28;20068;-77
2021/12/26 04:30:39;;;;;;;5.25;3.08;;;-14.90;99.90;;;;;;4988547;28;20537;-77
2021/12/26 04:33:06;;;;;;;3.75;2.20;;;-15.00;99.90;;;;;;4990786;28;20069;-77
2021/12/26 04:35:35;;;;;;;4.20;2.75;;;-15.00;99.90;;;;;;4989615;28;20129;-77
2021/12/26 04:38:02;;;;;;;7.75;2.72;;;-15.10;99.90;;;;;;5005161;28;20046;-78
2021/12/26 04:40:30;;;;;;;8.30;3.40;;;-15.00;99.90;;;;;;4988689;28;20050;-77
2021/12/26 04:43:30;;;;;;;7.18;2.97;;;-15.10;99.90;;;;;;4990037;28;20094;-77
2021/12/26 04:46:09;;;;;;;7.53;3.17;;;-15.20;99.90;;;;;;4971483;28;20422;-76
2021/12/26 04:48:46;;;;;;;6.20;2.38;;;-15.30;99.90;;;;;;4990805;28;20400;-77
2021/12/26 04:51:15;;;;;;;7.50;2.65;;;-15.30;99.90;;;;;;5004291;28;20084;-76
2021/12/26 04:53:44;;;;;;;4.53;2.28;;;-15.50;99.90;;;;;;4989231;28;20578;-75
2021/12/26 04:56:12;;;;;;;6.07;2.20;;;-15.50;99.90;;;;;;4987135;28;20101;-76
2021/12/26 04:58:41;;;;;;;6.90;3.05;;;-15.60;99.90;;;;;;4989584;28;20467;-76
2021/12/26 05:01:08;;;;;;;11.52;2.67;;;-15.70;99.90;;;;;;4989916;28;20052;-75
2021/12/26 05:03:36;;;;;;;5.97;3.25;;;-15.80;99.90;;;;;;4971449;28;20085;-76
2021/12/26 05:06:04;;;;;;;4.47;2.75;;;-15.90;99.90;;;;;;4995733;28;20046;-75
2021/12/26 05:08:31;;;;;;;6.32;1.77;;;-16.00;99.90;;;;;;4989398;28;20054;-76
2021/12/26 05:11:00;;;;;;;3.45;1.73;;;-16.10;99.90;;;;;;4990355;28;20058;-78
2021/12/26 05:13:28;;;;;;;3.80;2.17;;;-16.20;99.90;;;;;;4985261;28;20054;-76
2021/12/26 05:15:56;;;;;;;3.60;2.20;;;-16.30;99.90;;;;;;4990296;28;20193;-77
2021/12/26 05:18:24;;;;;;;3.60;2.33;;;-16.40;99.90;;;;;;4990182;28;20046;-77
2021/12/26 05:21:00;;;;;;;6.45;2.40;;;-16.50;99.90;;;;;;5006106;28;20100;-79
2021/12/26 05:23:28;;;;;;;4.28;1.80;;;-16.60;99.90;;;;;;5001650;28;20125;-78
2021/12/26 05:25:55;;;;;;;4.70;2.35;;;-16.70;99.90;;;;;;5004232;28;20448;-78
2021/12/26 05:28:24;;;;;;;5.80;2.63;;;-16.70;99.90;;;;;;4983448;28;20054;-79
2021/12/26 05:30:53;;;;;;;4.35;2.13;;;-16.80;99.90;;;;;;5007208;28;20467;-76
2021/12/26 05:33:29;;;;;;;2.95;2.05;;;-16.80;99.90;;;;;;4992750;28;20112;-77
2021/12/26 05:36:02;;;;;;;4.40;1.85;;;-16.90;99.90;;;;;;4996992;28;20042;-84
2021/12/26 05:38:40;;;;;;;3.30;2.22;;;-17.00;99.90;;;;;;4993718;28;20113;-78
2021/12/26 05:41:08;;;;;;;1.75;1.60;;;-17.00;99.90;;;;;;4984704;28;20046;-78
2021/12/26 05:43:42;;;;;;;3.55;1.48;;;-17.00;99.90;;;;;;4975486;28;20054;-79
2021/12/26 05:46:10;;;;;;;6.07;2.17;;;-17.10;99.90;;;;;;4993282;28;20096;-81
2021/12/26 05:48:39;;;;;;;2.30;1.85;;;-17.10;99.90;;;;;;4993450;28;20069;-83
2021/12/26 05:51:19;;;;;;;1.65;1.27;;;-17.20;99.90;;;;;;4989509;28;20043;-81
2021/12/26 05:54:05;;;;;;;2.65;1.73;;;-17.40;99.90;;;;;;4989524;28;20053;-80
2021/12/26 05:56:33;;;;;;;4.15;2.15;;;-17.50;99.90;;;;;;4993531;28;20042;-81
2021/12/26 05:59:00;;;;;;;1.85;1.02;;;-17.50;99.90;;;;;;4992056;28;20042;-82
2021/12/26 06:01:28;;;;;;;1.38;0.93;;;-17.60;99.90;;;;;;5010224;28;20056;-78
2021/12/26 06:03:59;;;;;;;5.00;1.65;;;-17.80;99.90;;;;;;5004795;28;20072;-79
2021/12/26 06:06:27;;;;;;;2.90;1.48;;;-17.90;99.90;;;;;;4975252;28;20525;-80
2021/12/26 06:08:55;;;;;;;2.78;1.35;;;-17.90;99.90;;;;;;4984629;28;20533;-77
2021/12/26 06:11:23;;;;;;;4.18;1.48;;;-18.00;99.90;;;;;;4986604;28;20058;-74
2021/12/26 06:13:50;;;;;;;6.60;1.33;;;-18.10;99.90;;;;;;4959510;28;20055;-76
2021/12/26 06:16:18;;;;;;;2.55;1.70;;;-18.10;99.90;;;;;;4974507;28;20086;-75
2021/12/26 06:18:47;;;;;;;4.65;1.70;;;-18.20;99.90;;;;;;4987877;28;20049;-75
2021/12/26 06:21:35;;;;;;;3.00;1.73;;;-18.20;99.90;;;;;;4994527;28;20053;-76
2021/12/26 06:24:21;;;;;;;2.80;1.52;;;-18.20;99.90;;;;;;4983990;28;20054;-77
2021/12/26 06:27:10;;;;;;;6.22;2.13;;;-18.20;99.90;;;;;;4984730;28;20046;-78
2021/12/26 06:29:56;;;;;;;5.72;2.45;;;-18.30;99.90;;;;;;4986487;28;20129;-78
2021/12/26 06:32:47;;;;;;;4.45;2.20;;;-18.30;99.90;;;;;;4984293;28;20042;-78
2021/12/26 06:35:33;;;;;;;5.03;3.05;;;-18.30;99.90;;;;;;4975343;28;20054;-76
2021/12/26 06:38:21;;;;;;;7.53;2.08;;;-18.30;99.90;;;;;;4994237;28;20042;-77
2021/12/26 06:41:08;;;;;;;4.65;1.80;;;-18.30;99.90;;;;;;4992529;28;20046;-78
2021/12/26 06:43:58;;;;;;;5.50;2.03;;;-18.30;99.90;;;;;;4982047;28;20058;-78
2021/12/26 06:46:52;;;;;;;4.07;1.52;;;-18.30;99.90;;;;;;4985695;28;20894;-76
2021/12/26 06:49:28;;;;;;;4.80;1.80;;;-18.30;99.90;;;;;;4974505;28;20050;-76
2021/12/26 06:51:57;;;;;;;3.95;2.40;;;-18.20;99.90;;;;;;4974600;28;20419;-75
2021/12/26 06:54:26;;;;;;;4.95;1.95;;;-18.20;99.90;;;;;;4988716;28;20303;-78
2021/12/26 06:56:53;;;;;;;7.00;2.20;;;-18.20;99.90;;;;;;4990068;28;20506;-74
2021/12/26 06:59:21;;;;;;;2.42;1.42;;;-18.20;99.90;;;;;;4992169;28;20065;-75
2021/12/26 07:01:48;;;;;;;5.47;2.10;;;-18.10;99.90;;;;;;4991442;28;20046;-75
2021/12/26 07:04:19;;;;;;;8.27;2.10;;;-18.00;99.90;;;;;;4983243;28;20042;-77
2021/12/26 07:06:48;;;;;;;3.03;1.75;;;-18.00;99.90;;;;;;4980339;28;20049;-78
2021/12/26 07:09:25;;;;;;;4.07;1.98;;;-18.00;99.90;;;;;;4982189;28;20173;-76
2021/12/26 07:11:54;;;;;;;4.78;2.05;;;-18.00;99.90;;;;;;4988372;28;20403;-80
2021/12/26 07:14:47;;;;;;;3.35;1.20;;;-17.90;99.90;;;;;;4985676;28;20053;-77
2021/12/26 07:17:15;;;;;;;3.97;1.38;;;-18.00;99.90;;;;;;4991239;28;20100;-77
2021/12/26 07:19:48;;;;;;;9.68;2.55;;;-18.10;99.90;;;;;;5004390;28;20093;-82
2021/12/26 07:22:35;;;;;;;5.80;1.67;;;-18.20;99.90;;;;;;4987983;28;20057;-78
2021/12/26 07:25:06;;;;;;;4.72;2.38;;;-18.20;99.90;;;;;;4987926;28;20408;-82
2021/12/26 07:27:34;;;;;;;9.05;2.85;;;-18.10;99.90;;;;;;4986912;28;20045;-80
2021/12/26 07:30:20;;;;;;;3.10;1.58;;;-18.00;99.90;;;;;;4985111;28;20124;-82
2021/12/26 07:32:49;;;;;;;2.90;1.58;;;-18.00;99.90;;;;;;4986824;28;20137;-80
2021/12/26 07:35:16;;;;;;;6.72;2.10;;;-18.00;99.90;;;;;;4974236;28;20042;-80
2021/12/26 07:37:46;;;;;;;4.13;1.85;;;-18.10;99.90;;;;;;5007176;28;20046;-80
2021/12/26 07:40:15;;;;;;;6.07;2.90;;;-18.10;99.90;;;;;;4992508;28;20463;-82
2021/12/26 07:42:45;;;;;;;4.30;2.38;;;-18.20;99.90;;;;;;4980964;28;20141;-78
2021/12/26 07:45:45;;;;;;;13.05;2.78;;;-18.20;99.90;;;;;;4948949;28;20200;-77
2021/12/26 07:48:13;;;;;;;7.50;2.25;;;-18.20;99.90;;;;;;4986302;28;20054;-79
2021/12/26 07:50:40;;;;;;;3.67;1.67;;;-18.20;99.90;;;;;;4999226;28;20050;-79
2021/12/26 07:53:26;;;;;;;7.60;2.03;;;-18.20;99.90;;;;;;4986877;28;20089;-78
2021/12/26 07:56:27;;;;;;;3.92;2.20;;;-18.20;99.90;;;;;;4977105;28;20486;-78
2021/12/26 07:59:13;;;;;;;5.50;3.03;;;-18.00;99.90;;;;;;4988554;28;20053;-78
2021/12/26 08:02:00;;;;;;;9.00;2.22;;;-17.90;99.90;;;;;;4997158;28;20053;-78
2021/12/26 08:04:49;;;;;;;4.20;2.60;;;-17.70;99.90;;;;;;4967976;28;20523;-78
2021/12/26 08:07:33;;;;;;;7.63;3.20;;;-17.50;99.90;;;;;;4987703;28;20530;-81
2021/12/26 08:10:02;;;;;;;1.55;1.10;;;-17.30;99.90;;;;;;4985046;28;20078;-80
2021/12/26 08:12:32;;;;;;;6.95;2.20;;;-17.10;99.90;;;;;;5004208;28;20136;-82
2021/12/26 08:15:01;;;;;;;5.20;2.47;;;-17.00;99.90;;;;;;4987776;28;20049;-82
2021/12/26 08:17:31;;;;;;;4.68;1.48;;;-16.90;99.90;;;;;;4985850;28;20513;-79
2021/12/26 08:19:59;;;;;;;5.05;1.88;;;-16.80;99.90;;;;;;4996474;28;20050;-77
2021/12/26 08:22:28;;;;;;;4.07;2.45;;;-16.80;99.90;;;;;;4986921;28;20117;-79
2021/12/26 08:24:56;;;;;;;7.75;2.55;;;-16.70;99.90;;;;;;4988985;28;20408;-77
2021/12/26 08:27:24;;;;;;;2.53;1.67;;;-16.70;99.90;;;;;;4977317;28;20038;-78
2021/12/26 08:29:53;;;;;;;6.15;3.08;;;-16.60;99.90;;;;;;4988113;28;20602;-77
2021/12/26 08:32:20;;;;;;;3.53;2.08;;;-16.60;99.90;;;;;;4985907;28;20035;-79
2021/12/26 08:34:48;;;;;;;6.38;2.50;;;-16.60;99.90;;;;;;4959471;28;20096;-81
2021/12/26 08:37:15;;;;;;;6.75;2.28;;;-16.50;99.90;;;;;;4984698;28;20588;-79
2021/12/26 08:39:46;;;;;;;2.42;1.73;;;-16.50;99.90;;;;;;4986991;28;20042;-79
2021/12/26 08:42:15;;;;;;;1.48;1.38;;;-16.50;99.90;;;;;;4987651;28;20046;-78
2021/12/26 08:44:43;;;;;;;6.50;2.17;;;-16.50;99.90;;;;;;4985853;28;20089;-78
2021/12/26 08:47:15;;;;;;;3.67;2.00;;;-16.60;99.90;;;;;;4978917;28;20042;-77
2021/12/26 08:49:42;;;;;;;2.95;1.17;;;-16.60;99.90;;;;;;4986343;28;20061;-76
2021/12/26 08:52:10;;;;;;;2.28;1.25;;;-16.60;99.90;;;;;;4987034;28;20503;-79
2021/12/26 08:54:39;;;;;;;4.45;2.25;;;-16.60;99.90;;;;;;4987610;28;20503;-75
2021/12/26 08:57:08;;;;;;;10.73;2.67;;;-16.50;99.90;;;;;;4984252;28;20051;-77
2021/12/26 08:59:40;;;;;;;0.60;0.55;;;-16.50;99.90;;;;;;4982852;28;20452;-76
2021/12/26 09:02:09;;;;;;;4.78;2.30;;;-16.50;99.90;;;;;;4987404;28;20610;-76
2021/12/26 09:04:40;;;;;;;7.13;2.10;;;-16.50;99.90;;;;;;4984525;28;20046;-77
2021/12/26 09:07:09;;;;;;;11.43;3.05;;;-16.50;99.90;;;;;;4989051;28;20050;-78
2021/12/26 09:09:37;;;;;;;6.80;2.83;;;-16.40;99.90;;;;;;4991620;28;20133;-76
2021/12/26 09:12:07;;;;;;;4.97;1.10;;;-16.30;99.90;;;;;;4989968;28;20133;-79
2021/12/26 09:14:34;;;;;;;5.70;2.33;;;-16.30;99.90;;;;;;4990316;28;20042;-78
2021/12/26 09:17:02;;;;;;;3.22;1.40;;;-16.30;99.90;;;;;;4990753;28;20100;-80
2021/12/26 09:19:30;;;;;;;3.42;1.80;;;-16.10;99.90;;;;;;4989846;28;20038;-77
2021/12/26 09:22:02;;;;;;;12.07;1.98;;;-16.10;99.90;;;;;;4983807;28;20050;-79
2021/12/26 09:24:30;;;;;;;9.45;3.05;;;-15.90;99.90;;;;;;4987278;28;20078;-78
2021/12/26 09:26:58;;;;;;;3.95;1.80;;;-15.90;99.90;;;;;;4990730;28;20057;-75
2021/12/26 09:29:28;;;;;;;8.55;2.45;;;-15.90;99.90;;;;;;4990385;28;20061;-80
2021/12/26 09:31:56;;;;;;;4.13;2.22;;;-15.80;99.90;;;;;;4989635;28;20149;-77
2021/12/26 09:34:24;;;;;;;7.43;2.80;;;-15.80;99.90;;;;;;4990648;28;20061;-80
2021/12/26 09:36:53;;;;;;;6.32;2.72;;;-15.90;99.90;;;;;;4990327;28;20056;-78
2021/12/26 09:39:22;;;;;;;11.88;2.70;;;-15.80;99.90;;;;;;4989108;28;20050;-78
2021/12/26 09:41:50;;;;;;;4.57;1.75;;;-15.80;99.90;;;;;;4989867;28;20493;-78
2021/12/26 09:44:18;;;;;;;3.75;1.85;;;-15.80;99.90;;;;;;4990857;28;20074;-78
2021/12/26 09:46:46;;;;;;;1.00;0.75;;;-15.70;99.90;;;;;;4989197;28;20443;-78
2021/12/26 09:49:13;;;;;;;3.22;1.65;;;-15.70;99.90;;;;;;4966571;28;20507;-78
2021/12/26 09:51:41;;;;;;;5.82;2.20;;;-15.60;99.90;;;;;;4988441;28;20132;-78
2021/12/26 09:54:10;;;;;;;8.50;2.85;;;-15.50;99.90;;;;;;4986812;28;20467;-79
2021/12/26 09:56:39;;;;;;;10.80;2.55;;;-15.40;99.90;;;;;;4988758;28;20046;-77
2021/12/26 09:59:09;;;;;;;3.75;1.95;;;-15.30;99.90;;;;;;4981512;28;20047;-77
2021/12/26 10:01:42;;;;;;;3.83;2.22;;;-15.20;99.90;;;;;;4988331;28;20070;-76
2021/12/26 10:04:18;;;;;;;;;;;-15.20;99.90;;;;;;4993689;28;20054;-77
2021/12/26 10:06:46;;;;;;;2.90;1.70;;;-15.20;99.90;;;;;;4991548;28;20408;-78
2021/12/26 10:09:15;;;;;;;6.32;2.45;;;-15.20;99.90;;;;;;4987265;28;20054;-79
2021/12/26 10:11:46;;;;;;;20.55;2.67;;;-15.30;99.90;;;;;;4990499;28;20072;-78
2021/12/26 10:14:16;;;;;;;10.77;2.33;;;-15.30;99.90;;;;;;4988835;28;20133;-79
2021/12/26 10:16:47;;;;;;;4.82;2.70;;;-15.30;99.90;;;;;;4988864;28;20046;-77
2021/12/26 10:19:15;;;;;;;7.40;2.13;;;-15.20;99.90;;;;;;4979910;28;20072;-78
2021/12/26 10:21:44;;;;;;;7.32;2.13;;;-15.20;99.90;;;;;;4985818;28;20125;-78
2021/12/26 10:24:16;;;;;;;1.33;0.95;;;-15.10;99.90;;;;;;4988602;28;20046;-79
2021/12/26 10:26:49;;;;;;;2.17;1.33;;;-15.00;99.90;;;;;;4989294;28;20054;-79
2021/12/26 10:29:25;;;;;;;7.63;2.97;;;-15.00;99.90;;;;;;4989212;28;20054;-75
2021/12/26 10:32:11;;;;;;;2.38;1.05;;;-15.10;99.90;;;;;;4988706;28;20057;-78
2021/12/26 10:34:44;;;;;;;3.47;1.90;;;-15.00;99.90;;;;;;4990220;28;20078;-77
2021/12/26 10:37:16;;;;;;;3.80;1.70;;;-14.90;99.90;;;;;;4986260;28;20073;-79
2021/12/26 10:39:47;;;;;;;6.93;2.22;;;-14.90;99.90;;;;;;4985817;28;20511;-78
2021/12/26 10:42:19;;;;;;;4.47;2.03;;;-15.00;99.90;;;;;;4986095;28;20146;-79
2021/12/26 10:44:50;;;;;;;3.63;2.33;;;-14.90;99.90;;;;;;4981561;28;20148;-77
2021/12/26 10:47:20;;;;;;;5.78;2.45;;;-14.80;99.90;;;;;;4978715;28;20153;-79
2021/12/26 10:50:00;;;;;;;5.50;2.13;;;-14.70;99.90;;;;;;4987426;28;20503;-79
2021/12/26 10:52:30;;;;;;;3.85;2.13;;;-14.70;99.90;;;;;;4969447;28;20598;-79
2021/12/26 10:55:02;;;;;;;4.55;3.17;;;-14.50;99.90;;;;;;4976122;28;20664;-79
2021/12/26 10:57:37;;;;;;;8.95;2.83;;;-14.50;99.90;;;;;;4987802;28;20050;-78
2021/12/26 11:00:23;;;;;;;5.65;2.13;;;-14.50;99.90;;;;;;4990363;28;20046;-80
2021/12/26 11:02:54;;;;;;;10.35;3.35;;;-14.50;99.90;;;;;;4989457;28;20969;-79
2021/12/26 11:05:23;;;;;;;4.70;1.67;;;-14.40;99.90;;;;;;4984216;28;20050;-78
2021/12/26 11:07:56;;;;;;;7.55;3.08;;;-14.40;99.90;;;;;;4986597;28;20142;-78
2021/12/26 11:10:29;;;;;;;6.78;2.55;;;-14.30;99.90;;;;;;4987519;28;20062;-78
2021/12/26 11:13:01;;;;;;;4.20;2.03;;;-14.30;99.90;;;;;;4985202;28;20057;-81
2021/12/26 11:15:32;;;;;;;7.85;3.20;;;-14.40;99.90;;;;;;4986478;28;20062;-80
2021/12/26 11:18:04;;;;;;;7.43;2.20;;;-14.30;99.90;;;;;;4987407;28;20096;-78
2021/12/26 11:20:35;;;;;;;3.03;1.67;;;-14.20;99.90;;;;;;4987979;28;20054;-76
2021/12/26 11:23:10;;;;;;;8.18;3.97;;;-14.20;99.90;;;;;;4985908;28;20121;-76
2021/12/26 11:25:43;;;;;;;8.68;3.03;;;-14.10;99.90;;;;;;4983306;28;20050;-78
2021/12/26 11:28:16;;;;;;;5.03;2.35;;;-14.10;99.90;;;;;;4988226;28;20422;-77
2021/12/26 11:30:45;;;;;;;8.43;2.72;;;-14.10;99.90;;;;;;4985387;28;20536;-80
2021/12/26 11:33:13;;;;;;;5.20;2.67;;;-14.10;99.90;;;;;;4986652;28;20046;-80
2021/12/26 11:35:44;;;;;;;5.65;2.40;;;-14.10;99.90;;;;;;4989120;28;20108;-77
2021/12/26 11:38:16;;;;;;;7.35;2.30;;;-14.10;99.90;;;;;;4986540;28;20108;-79
2021/12/26 11:41:08;;;;;;;6.13;2.65;;;-14.00;99.90;;;;;;4986511;28;20434;-81
2021/12/26 11:44:23;;;;;;;7.47;3.33;;;-14.00;99.90;;;;;;4987199;28;20538;-80
2021/12/26 11:47:37;;;;;;;6.00;2.47;;;-14.00;99.90;;;;;;4987203;28;20049;-78
2021/12/26 11:50:43;;;;;;;4.05;2.53;;;-14.00;99.90;;;;;;4981405;28;20065;-79
2021/12/26 11:54:06;;;;;;;5.30;1.88;;;-14.00;99.90;;;;;;4967903;28;20078;-77
2021/12/26 11:57:14;;;;;;;4.45;2.08;;;-14.10;99.90;;;;;;4986740;28;20060;-80
2021/12/26 12:00:06;;;;;;;6.15;2.35;;;-14.30;99.90;;;;;;4988017;28;20414;-78
2021/12/26 12:02:46;;;;;;;6.47;3.03;;;-14.40;99.90;;;;;;4984131;28;20050;-79
2021/12/26 12:05:18;;;;;;;4.97;1.95;;;-14.40;99.90;;;;;;4987016;28;20046;-79
2021/12/26 12:07:59;;;;;;;5.82;2.72;;;-14.50;99.90;;;;;;4988268;28;20081;-79
2021/12/26 12:10:44;;;;;;;1.88;1.33;;;-14.50;99.90;;;;;;4982374;28;20058;-79
2021/12/26 12:13:15;;;;;;;5.97;2.60;;;-14.50;99.90;;;;;;4985629;28;20048;-80
2021/12/26 12:15:56;;;;;;;4.85;1.90;;;-14.50;99.90;;;;;;4984938;28;20089;-80
2021/12/26 12:18:26;;;;;;;5.95;1.77;;;-14.50;99.90;;;;;;4984688;28;20422;-76
2021/12/26 12:21:12;;;;;;;6.65;3.42;;;-14.60;99.90;;;;;;4985635;28;20586;-79
2021/12/26 12:24:01;;;;;;;5.65;2.45;;;-14.60;99.90;;;;;;4968888;28;20050;-80
2021/12/26 12:26:50;;;;;;;7.10;3.65;;;-14.60;99.90;;;;;;4985278;28;20050;-81
2021/12/26 12:29:51;;;;;;;3.53;2.20;;;-14.70;99.90;;;;;;4983110;28;20062;-79
2021/12/26 12:32:26;;;;;;;;;;;-14.70;99.90;;;;;;4950584;28;20132;-80
2021/12/26 12:34:59;;;;;;;2.83;1.38;;;-14.70;99.90;;;;;;4984549;28;20368;-78
2021/12/26 12:37:37;;;;;;;7.63;2.88;;;-14.70;99.90;;;;;;4986440;28;20047;-76
2021/12/26 12:40:25;;;;;;;4.55;1.92;;;-14.70;99.90;;;;;;4980909;28;20082;-80
2021/12/26 12:43:16;;;;;;;4.20;2.17;;;-14.70;99.90;;;;;;4985331;28;20042;-78
2021/12/26 12:46:06;;;;;;;6.15;2.45;;;-14.80;99.90;;;;;;4983386;28;20055;-79
2021/12/26 12:48:40;;;;;;;4.07;1.77;;;-14.80;99.90;;;;;;4986077;28;20054;-76
2021/12/26 12:51:45;;;;;;;4.97;1.92;;;-14.80;99.90;;;;;;4988084;28;20058;-79
2021/12/26 12:54:30;;;;;;;6.18;1.63;;;-14.80;99.90;;;;;;4985457;28;20507;-77
2021/12/26 12:57:00;;;;;;;4.63;2.33;;;-14.80;99.90;;;;;;4986283;28;20058;-79
2021/12/26 12:59:39;;;;;;;3.70;1.75;;;-14.70;99.90;;;;;;4981587;28;20054;-77
2021/12/26 13:02:11;;;;;;;3.42;1.63;;;-14.70;99.90;;;;;;4968758;28;20120;-77
2021/12/26 13:04:45;;;;;;;;;;;-14.70;99.90;;;;;;4987888;28;20046;-78
2021/12/26 13:07:19;;;;;;;3.40;2.33;;;-14.70;99.90;;;;;;4985392;28;19972;-79
2021/12/26 13:09:56;;;;;;;2.17;1.38;;;-14.70;99.90;;;;;;4987332;28;20062;-81